sensor_id;sensor_type;location;lat;lon;timestamp;temperature;humidity
4366;DHT22;2196;47.422;9.656;2022-11-20T00:01:29;7.10;99.90
4366;DHT22;2196;47.422;9.656;2022-11-20T00:03:57;7.10;99.90
4366;DHT22;2196;47.422;9.656;2022-11-20T00:06:26;7.00;99.90
4366;DHT22;2196;47.422;9.656;2022-11-20T00:08:55;7.00;99.90
4366;DHT22;2196;47.422;9.656;2022-11-20T00:11:26;7.00;99.90
4366;DHT22;2196;47.422;9.656;2022-11-20T00:13:55;7.00;99.90
4366;DHT22;2196;47.422;9.656;2022-11-20T00:16:25;7.00;99.90
4366;DHT22;2196;47.422;9.656;2022-11-20T00:18:52;6.90;99.90
4366;DHT22;2196;47.422;9.656;2022-11-20T00:21:21;6.90;99.90
4366;DHT22;2196;47.422;9.656;2022-11-20T00:23:49;7.00;99.90
4366;DHT22;2196;47.422;9.656;2022-11-20T00:26:18;7.00;99.90
4366;DHT22;2196;47.422;9.656;2022-11-20T00:28:51;7.00;99.90
4366;DHT22;2196;47.422;9.656;2022-11-20T00:31:19;6.90;99.90
4366;DHT22;2196;47.422;9.656;2022-11-20T00:33:46;7.10;99.90
4366;DHT22;2196;47.422;9.656;2022-11-20T00:36:15;7.20;99.90
4366;DHT22;2196;47.422;9.656;2022-11-20T00:38:43;7.10;99.90
4366;DHT22;2196;47.422;9.656;2022-11-20T00:41:11;7.10;99.90
4366;DHT22;2196;47.422;9.656;2022-11-20T00:43:38;7.00;99.90
4366;DHT22;2196;47.422;9.656;2022-11-20T00:46:09;7.00;99.90
4366;DHT22;2196;47.422;9.656;2022-11-20T00:48:36;7.00;99.90
4366;DHT22;2196;47.422;9.656;2022-11-20T00:51:03;7.00;99.90
4366;DHT22;2196;47.422;9.656;2022-11-20T00:53:31;7.00;99.90
4366;DHT22;2196;47.422;9.656;2022-11-20T00:55:59;7.00;99.90
4366;DHT22;2196;47.422;9.656;2022-11-20T00:58:29;7.00;99.90
4366;DHT22;2196;47.422;9.656;2022-11-20T01:01:00;6.90;99.90
4366;DHT22;2196;47.422;9.656;2022-11-20T01:03:31;6.90;99.90
4366;DHT22;2196;47.422;9.656;2022-11-20T01:06:00;6.90;99.90
4366;DHT22;2196;47.422;9.656;2022-11-20T01:08:30;7.00;99.90
4366;DHT22;2196;47.422;9.656;2022-11-20T01:11:02;7.00;99.90
4366;DHT22;2196;47.422;9.656;2022-11-20T01:13:30;7.10;99.90
4366;DHT22;2196;47.422;9.656;2022-11-20T01:16:08;7.10;99.90
4366;DHT22;2196;47.422;9.656;2022-11-20T01:18:39;7.00;99.90
4366;DHT22;2196;47.422;9.656;2022-11-20T01:21:10;6.90;99.90
4366;DHT22;2196;47.422;9.656;2022-11-20T01:23:38;7.00;99.90
4366;DHT22;2196;47.422;9.656;2022-11-20T01:26:08;7.00;99.90
4366;DHT22;2196;47.422;9.656;2022-11-20T01:28:35;7.00;99.90
4366;DHT22;2196;47.422;9.656;2022-11-20T01:31:10;6.90;99.90
4366;DHT22;2196;47.422;9.656;2022-11-20T01:33:39;6.90;99.90
4366;DHT22;2196;47.422;9.656;2022-11-20T01:36:07;6.80;99.90
4366;DHT22;2196;47.422;9.656;2022-11-20T01:38:34;6.80;99.90
4366;DHT22;2196;47.422;9.656;2022-11-20T01:41:02;6.80;99.90
4366;DHT22;2196;47.422;9.656;2022-11-20T01:43:29;6.90;99.90
4366;DHT22;2196;47.422;9.656;2022-11-20T01:46:16;6.90;99.90
4366;DHT22;2196;47.422;9.656;2022-11-20T01:48:50;6.90;99.90
4366;DHT22;2196;47.422;9.656;2022-11-20T01:51:26;6.90;99.90
4366;DHT22;2196;47.422;9.656;2022-11-20T01:53:55;6.90;99.90
4366;DHT22;2196;47.422;9.656;2022-11-20T01:56:24;6.90;99.90
4366;DHT22;2196;47.422;9.656;2022-11-20T01:58:54;6.90;99.90
4366;DHT22;2196;47.422;9.656;2022-11-20T02:01:23;6.90;99.90
4366;DHT22;2196;47.422;9.656;2022-11-20T02:03:51;6.90;99.90
4366;DHT22;2196;47.422;9.656;2022-11-20T02:06:22;6.90;99.90
4366;DHT22;2196;47.422;9.656;2022-11-20T02:08:51;6.90;99.90
4366;DHT22;2196;47.422;9.656;2022-11-20T02:11:18;6.80;99.90
4366;DHT22;2196;47.422;9.656;2022-11-20T02:13:45;6.80;99.90
4366;DHT22;2196;47.422;9.656;2022-11-20T02:16:17;6.80;99.90
4366;DHT22;2196;47.422;9.656;2022-11-20T02:18:46;6.80;99.90
4366;DHT22;2196;47.422;9.656;2022-11-20T02:21:23;6.70;99.90
4366;DHT22;2196;47.422;9.656;2022-11-20T02:24:07;6.70;99.90
4366;DHT22;2196;47.422;9.656;2022-11-20T02:26:40;6.70;99.90
4366;DHT22;2196;47.422;9.656;2022-11-20T02:29:08;6.70;99.90
4366;DHT22;2196;47.422;9.656;2022-11-20T02:31:38;6.70;99.90
4366;DHT22;2196;47.422;9.656;2022-11-20T02:34:06;6.70;99.90
4366;DHT22;2196;47.422;9.656;2022-11-20T02:36:35;6.70;99.90
4366;DHT22;2196;47.422;9.656;2022-11-20T02:39:04;6.70;99.90
4366;DHT22;2196;47.422;9.656;2022-11-20T02:41:33;7.10;99.90
4366;DHT22;2196;47.422;9.656;2022-11-20T02:44:01;7.00;99.90
4366;DHT22;2196;47.422;9.656;2022-11-20T02:46:28;6.90;99.90
4366;DHT22;2196;47.422;9.656;2022-11-20T02:48:55;6.90;99.90
4366;DHT22;2196;47.422;9.656;2022-11-20T02:51:23;6.80;99.90
4366;DHT22;2196;47.422;9.656;2022-11-20T02:53:50;6.80;99.90
4366;DHT22;2196;47.422;9.656;2022-11-20T02:56:18;6.70;99.90
4366;DHT22;2196;47.422;9.656;2022-11-20T02:58:45;6.70;99.90
4366;DHT22;2196;47.422;9.656;2022-11-20T03:01:13;6.60;99.90
4366;DHT22;2196;47.422;9.656;2022-11-20T03:03:40;6.60;99.90
4366;DHT22;2196;47.422;9.656;2022-11-20T03:06:07;6.60;99.90
4366;DHT22;2196;47.422;9.656;2022-11-20T03:08:34;6.60;99.90
4366;DHT22;2196;47.422;9.656;2022-11-20T03:11:03;6.60;99.90
4366;DHT22;2196;47.422;9.656;2022-11-20T03:13:32;6.50;99.90
4366;DHT22;2196;47.422;9.656;2022-11-20T03:16:05;6.50;99.90
4366;DHT22;2196;47.422;9.656;2022-11-20T03:18:33;6.50;99.90
4366;DHT22;2196;47.422;9.656;2022-11-20T03:21:00;6.60;99.90
4366;DHT22;2196;47.422;9.656;2022-11-20T03:23:29;6.50;99.90
4366;DHT22;2196;47.422;9.656;2022-11-20T03:26:06;6.50;99.90
4366;DHT22;2196;47.422;9.656;2022-11-20T03:28:34;6.50;99.90
4366;DHT22;2196;47.422;9.656;2022-11-20T03:31:05;6.50;99.90
4366;DHT22;2196;47.422;9.656;2022-11-20T03:33:32;6.50;99.90
4366;DHT22;2196;47.422;9.656;2022-11-20T03:36:01;6.60;99.90
4366;DHT22;2196;47.422;9.656;2022-11-20T03:38:29;6.60;99.90
4366;DHT22;2196;47.422;9.656;2022-11-20T03:40:59;6.70;99.90
4366;DHT22;2196;47.422;9.656;2022-11-20T03:43:26;6.60;99.90
4366;DHT22;2196;47.422;9.656;2022-11-20T03:45:54;6.60;99.90
4366;DHT22;2196;47.422;9.656;2022-11-20T03:48:21;6.50;99.90
4366;DHT22;2196;47.422;9.656;2022-11-20T03:50:48;6.50;99.90
4366;DHT22;2196;47.422;9.656;2022-11-20T03:53:16;6.50;99.90
4366;DHT22;2196;47.422;9.656;2022-11-20T03:55:43;6.60;99.90
4366;DHT22;2196;47.422;9.656;2022-11-20T03:58:10;6.60;99.90
4366;DHT22;2196;47.422;9.656;2022-11-20T04:00:39;6.60;99.90
4366;DHT22;2196;47.422;9.656;2022-11-20T04:03:07;6.60;99.90
4366;DHT22;2196;47.422;9.656;2022-11-20T04:05:34;6.60;99.90
4366;DHT22;2196;47.422;9.656;2022-11-20T04:08:01;6.60;99.90
4366;DHT22;2196;47.422;9.656;2022-11-20T04:10:28;6.60;99.90
4366;DHT22;2196;47.422;9.656;2022-11-20T04:12:55;6.60;99.90
4366;DHT22;2196;47.422;9.656;2022-11-20T04:15:22;6.60;99.90
4366;DHT22;2196;47.422;9.656;2022-11-20T04:17:49;6.60;99.90
4366;DHT22;2196;47.422;9.656;2022-11-20T04:20:17;6.50;99.90
4366;DHT22;2196;47.422;9.656;2022-11-20T04:22:45;6.60;99.90
4366;DHT22;2196;47.422;9.656;2022-11-20T04:25:12;6.60;99.90
4366;DHT22;2196;47.422;9.656;2022-11-20T04:27:39;6.60;99.90
4366;DHT22;2196;47.422;9.656;2022-11-20T04:30:06;6.70;99.90
4366;DHT22;2196;47.422;9.656;2022-11-20T04:32:34;6.70;99.90
4366;DHT22;2196;47.422;9.656;2022-11-20T04:35:01;6.80;99.90
4366;DHT22;2196;47.422;9.656;2022-11-20T04:37:29;6.80;99.90
4366;DHT22;2196;47.422;9.656;2022-11-20T04:39:56;6.80;99.90
4366;DHT22;2196;47.422;9.656;2022-11-20T04:42:23;6.80;99.90
4366;DHT22;2196;47.422;9.656;2022-11-20T04:44:56;6.70;99.90
4366;DHT22;2196;47.422;9.656;2022-11-20T04:47:23;6.80;99.90
4366;DHT22;2196;47.422;9.656;2022-11-20T04:49:50;6.80;99.90
4366;DHT22;2196;47.422;9.656;2022-11-20T04:52:17;6.70;99.90
4366;DHT22;2196;47.422;9.656;2022-11-20T04:54:46;6.60;99.90
4366;DHT22;2196;47.422;9.656;2022-11-20T04:57:14;6.60;99.90
4366;DHT22;2196;47.422;9.656;2022-11-20T04:59:43;6.60;99.90
4366;DHT22;2196;47.422;9.656;2022-11-20T05:02:10;6.60;99.90
4366;DHT22;2196;47.422;9.656;2022-11-20T05:04:37;6.60;99.90
4366;DHT22;2196;47.422;9.656;2022-11-20T05:07:04;6.60;99.90
4366;DHT22;2196;47.422;9.656;2022-11-20T05:09:31;6.60;99.90
4366;DHT22;2196;47.422;9.656;2022-11-20T05:11:59;6.50;99.90
4366;DHT22;2196;47.422;9.656;2022-11-20T05:14:26;6.50;99.90
4366;DHT22;2196;47.422;9.656;2022-11-20T05:16:53;6.60;99.90
4366;DHT22;2196;47.422;9.656;2022-11-20T05:19:24;6.60;99.90
4366;DHT22;2196;47.422;9.656;2022-11-20T05:21:51;6.70;99.90
4366;DHT22;2196;47.422;9.656;2022-11-20T05:24:18;6.70;99.90
4366;DHT22;2196;47.422;9.656;2022-11-20T05:26:45;6.70;99.90
4366;DHT22;2196;47.422;9.656;2022-11-20T05:29:13;6.60;99.90
4366;DHT22;2196;47.422;9.656;2022-11-20T05:31:41;6.60;99.90
4366;DHT22;2196;47.422;9.656;2022-11-20T05:34:08;6.60;99.90
4366;DHT22;2196;47.422;9.656;2022-11-20T05:36:35;6.60;99.90
4366;DHT22;2196;47.422;9.656;2022-11-20T05:39:02;6.60;99.90
4366;DHT22;2196;47.422;9.656;2022-11-20T05:41:29;6.50;99.90
4366;DHT22;2196;47.422;9.656;2022-11-20T05:43:57;6.50;99.90
4366;DHT22;2196;47.422;9.656;2022-11-20T05:46:26;6.50;99.90
4366;DHT22;2196;47.422;9.656;2022-11-20T05:48:53;6.60;99.90
4366;DHT22;2196;47.422;9.656;2022-11-20T05:51:20;6.60;99.90
4366;DHT22;2196;47.422;9.656;2022-11-20T05:53:47;6.60;99.90
4366;DHT22;2196;47.422;9.656;2022-11-20T05:56:17;6.60;99.90
4366;DHT22;2196;47.422;9.656;2022-11-20T05:58:45;6.60;99.90
4366;DHT22;2196;47.422;9.656;2022-11-20T06:01:13;6.60;99.90
4366;DHT22;2196;47.422;9.656;2022-11-20T06:03:42;6.60;99.90
4366;DHT22;2196;47.422;9.656;2022-11-20T06:06:11;6.70;99.90
4366;DHT22;2196;47.422;9.656;2022-11-20T06:08:39;6.70;99.90
4366;DHT22;2196;47.422;9.656;2022-11-20T06:11:07;6.60;99.90
4366;DHT22;2196;47.422;9.656;2022-11-20T06:13:35;6.60;99.90
4366;DHT22;2196;47.422;9.656;2022-11-20T06:16:02;6.50;99.90
4366;DHT22;2196;47.422;9.656;2022-11-20T06:18:29;6.50;99.90
4366;DHT22;2196;47.422;9.656;2022-11-20T06:21:02;6.50;99.90
4366;DHT22;2196;47.422;9.656;2022-11-20T06:23:30;6.40;99.90
4366;DHT22;2196;47.422;9.656;2022-11-20T06:25:58;6.40;99.90
4366;DHT22;2196;47.422;9.656;2022-11-20T06:28:27;6.40;99.90
4366;DHT22;2196;47.422;9.656;2022-11-20T06:30:54;6.40;99.90
4366;DHT22;2196;47.422;9.656;2022-11-20T06:33:21;6.40;99.90
4366;DHT22;2196;47.422;9.656;2022-11-20T06:35:48;6.50;99.90
4366;DHT22;2196;47.422;9.656;2022-11-20T06:38:17;6.40;99.90
4366;DHT22;2196;47.422;9.656;2022-11-20T06:40:44;6.40;99.90
4366;DHT22;2196;47.422;9.656;2022-11-20T06:43:11;6.40;99.90
4366;DHT22;2196;47.422;9.656;2022-11-20T06:45:38;6.40;99.90
4366;DHT22;2196;47.422;9.656;2022-11-20T06:48:05;6.40;99.90
4366;DHT22;2196;47.422;9.656;2022-11-20T06:50:32;6.40;99.90
4366;DHT22;2196;47.422;9.656;2022-11-20T06:53:01;6.40;99.90
4366;DHT22;2196;47.422;9.656;2022-11-20T06:55:31;6.30;99.90
4366;DHT22;2196;47.422;9.656;2022-11-20T06:57:58;6.30;99.90
4366;DHT22;2196;47.422;9.656;2022-11-20T07:00:25;6.30;99.90
4366;DHT22;2196;47.422;9.656;2022-11-20T07:02:53;6.40;99.90
4366;DHT22;2196;47.422;9.656;2022-11-20T07:05:20;6.50;99.90
4366;DHT22;2196;47.422;9.656;2022-11-20T07:07:47;6.60;99.90
4366;DHT22;2196;47.422;9.656;2022-11-20T07:10:14;6.50;99.90
4366;DHT22;2196;47.422;9.656;2022-11-20T07:12:49;6.50;99.90
4366;DHT22;2196;47.422;9.656;2022-11-20T07:15:17;6.40;99.90
4366;DHT22;2196;47.422;9.656;2022-11-20T07:17:45;6.40;99.90
4366;DHT22;2196;47.422;9.656;2022-11-20T07:20:12;6.50;99.90
4366;DHT22;2196;47.422;9.656;2022-11-20T07:22:39;6.50;99.90
4366;DHT22;2196;47.422;9.656;2022-11-20T07:25:07;6.50;99.90
4366;DHT22;2196;47.422;9.656;2022-11-20T07:27:35;6.50;99.90
4366;DHT22;2196;47.422;9.656;2022-11-20T07:30:04;6.50;99.90
4366;DHT22;2196;47.422;9.656;2022-11-20T07:32:32;6.50;99.90
4366;DHT22;2196;47.422;9.656;2022-11-20T07:34:59;6.50;99.90
4366;DHT22;2196;47.422;9.656;2022-11-20T07:37:26;6.60;99.90
4366;DHT22;2196;47.422;9.656;2022-11-20T07:39:53;6.60;99.90
4366;DHT22;2196;47.422;9.656;2022-11-20T07:42:20;6.60;99.90
4366;DHT22;2196;47.422;9.656;2022-11-20T07:44:47;6.70;99.90
4366;DHT22;2196;47.422;9.656;2022-11-20T07:47:15;6.70;99.90
4366;DHT22;2196;47.422;9.656;2022-11-20T07:49:42;6.80;99.90
4366;DHT22;2196;47.422;9.656;2022-11-20T07:52:09;6.80;99.90
4366;DHT22;2196;47.422;9.656;2022-11-20T07:54:36;6.90;99.90
4366;DHT22;2196;47.422;9.656;2022-11-20T07:57:03;7.00;99.90
4366;DHT22;2196;47.422;9.656;2022-11-20T07:59:30;7.10;99.90
4366;DHT22;2196;47.422;9.656;2022-11-20T08:01:57;7.20;99.90
4366;DHT22;2196;47.422;9.656;2022-11-20T08:04:29;7.10;99.90
4366;DHT22;2196;47.422;9.656;2022-11-20T08:06:56;7.10;99.90
4366;DHT22;2196;47.422;9.656;2022-11-20T08:09:23;7.10;99.90
4366;DHT22;2196;47.422;9.656;2022-11-20T08:11:54;7.10;99.90
4366;DHT22;2196;47.422;9.656;2022-11-20T08:14:39;7.10;99.90
4366;DHT22;2196;47.422;9.656;2022-11-20T08:17:06;7.10;99.90
4366;DHT22;2196;47.422;9.656;2022-11-20T08:19:34;7.20;99.90
4366;DHT22;2196;47.422;9.656;2022-11-20T08:22:01;7.30;99.90
4366;DHT22;2196;47.422;9.656;2022-11-20T08:24:28;7.40;99.90
4366;DHT22;2196;47.422;9.656;2022-11-20T08:26:57;7.40;99.90
4366;DHT22;2196;47.422;9.656;2022-11-20T08:29:28;7.50;99.90
4366;DHT22;2196;47.422;9.656;2022-11-20T08:31:56;7.50;99.90
4366;DHT22;2196;47.422;9.656;2022-11-20T08:34:27;7.50;99.90
4366;DHT22;2196;47.422;9.656;2022-11-20T08:36:55;7.60;99.90
4366;DHT22;2196;47.422;9.656;2022-11-20T08:39:22;7.70;99.90
4366;DHT22;2196;47.422;9.656;2022-11-20T08:41:49;7.80;99.90
4366;DHT22;2196;47.422;9.656;2022-11-20T08:44:16;7.80;99.90
4366;DHT22;2196;47.422;9.656;2022-11-20T08:46:44;7.80;99.90
4366;DHT22;2196;47.422;9.656;2022-11-20T08:49:13;7.70;99.90
4366;DHT22;2196;47.422;9.656;2022-11-20T08:51:41;7.60;99.90
4366;DHT22;2196;47.422;9.656;2022-11-20T08:54:09;7.50;99.90
4366;DHT22;2196;47.422;9.656;2022-11-20T08:56:36;7.40;99.90
4366;DHT22;2196;47.422;9.656;2022-11-20T08:59:03;7.30;99.90
4366;DHT22;2196;47.422;9.656;2022-11-20T09:01:31;7.30;99.90
4366;DHT22;2196;47.422;9.656;2022-11-20T09:03:58;7.30;99.90
4366;DHT22;2196;47.422;9.656;2022-11-20T09:06:25;7.30;99.90
4366;DHT22;2196;47.422;9.656;2022-11-20T09:08:53;7.60;99.90
4366;DHT22;2196;47.422;9.656;2022-11-20T09:11:22;7.90;99.90
4366;DHT22;2196;47.422;9.656;2022-11-20T09:13:49;8.20;99.90
4366;DHT22;2196;47.422;9.656;2022-11-20T09:16:16;8.60;99.90
4366;DHT22;2196;47.422;9.656;2022-11-20T09:18:43;8.80;99.90
4366;DHT22;2196;47.422;9.656;2022-11-20T09:21:11;9.20;99.90
4366;DHT22;2196;47.422;9.656;2022-11-20T09:23:39;9.50;99.90
4366;DHT22;2196;47.422;9.656;2022-11-20T09:26:09;9.70;99.90
4366;DHT22;2196;47.422;9.656;2022-11-20T09:28:39;9.80;99.90
4366;DHT22;2196;47.422;9.656;2022-11-20T09:31:06;9.50;99.90
4366;DHT22;2196;47.422;9.656;2022-11-20T09:33:33;9.40;99.90
4366;DHT22;2196;47.422;9.656;2022-11-20T09:36:01;9.20;99.90
4366;DHT22;2196;47.422;9.656;2022-11-20T09:38:28;9.40;99.90
4366;DHT22;2196;47.422;9.656;2022-11-20T09:40:57;9.60;99.90
4366;DHT22;2196;47.422;9.656;2022-11-20T09:43:32;9.70;99.90
4366;DHT22;2196;47.422;9.656;2022-11-20T09:46:11;9.70;99.90
4366;DHT22;2196;47.422;9.656;2022-11-20T09:49:10;9.80;99.90
4366;DHT22;2196;47.422;9.656;2022-11-20T09:51:43;9.90;99.90
4366;DHT22;2196;47.422;9.656;2022-11-20T09:54:16;9.80;99.90
4366;DHT22;2196;47.422;9.656;2022-11-20T09:56:46;9.60;99.90
4366;DHT22;2196;47.422;9.656;2022-11-20T09:59:32;9.50;99.90
4366;DHT22;2196;47.422;9.656;2022-11-20T10:02:08;9.40;99.90
4366;DHT22;2196;47.422;9.656;2022-11-20T10:04:45;9.20;99.90
4366;DHT22;2196;47.422;9.656;2022-11-20T10:07:19;9.10;99.90
4366;DHT22;2196;47.422;9.656;2022-11-20T10:09:51;9.20;99.90
4366;DHT22;2196;47.422;9.656;2022-11-20T10:12:24;9.00;99.90
4366;DHT22;2196;47.422;9.656;2022-11-20T10:15:03;9.00;99.90
4366;DHT22;2196;47.422;9.656;2022-11-20T10:17:46;9.00;99.90
4366;DHT22;2196;47.422;9.656;2022-11-20T10:20:18;9.00;99.90
4366;DHT22;2196;47.422;9.656;2022-11-20T10:23:02;9.00;99.90
4366;DHT22;2196;47.422;9.656;2022-11-20T10:25:38;9.00;99.90
4366;DHT22;2196;47.422;9.656;2022-11-20T10:28:22;9.00;99.90
4366;DHT22;2196;47.422;9.656;2022-11-20T10:30:56;9.00;99.90
4366;DHT22;2196;47.422;9.656;2022-11-20T10:33:27;8.90;99.90
4366;DHT22;2196;47.422;9.656;2022-11-20T10:36:01;9.00;99.90
4366;DHT22;2196;47.422;9.656;2022-11-20T10:38:34;8.90;99.90
4366;DHT22;2196;47.422;9.656;2022-11-20T10:41:02;8.90;99.90
4366;DHT22;2196;47.422;9.656;2022-11-20T10:43:44;8.80;99.90
4366;DHT22;2196;47.422;9.656;2022-11-20T10:46:17;8.80;99.90
4366;DHT22;2196;47.422;9.656;2022-11-20T10:48:47;8.80;99.90
4366;DHT22;2196;47.422;9.656;2022-11-20T10:51:33;8.80;99.90
4366;DHT22;2196;47.422;9.656;2022-11-20T10:54:16;8.80;99.90
4366;DHT22;2196;47.422;9.656;2022-11-20T10:56:47;8.80;99.90
4366;DHT22;2196;47.422;9.656;2022-11-20T10:59:35;8.80;99.90
4366;DHT22;2196;47.422;9.656;2022-11-20T11:02:16;8.80;99.90
4366;DHT22;2196;47.422;9.656;2022-11-20T11:04:46;8.80;99.90
4366;DHT22;2196;47.422;9.656;2022-11-20T11:07:17;8.80;99.90
4366;DHT22;2196;47.422;9.656;2022-11-20T11:09:49;8.80;99.90
4366;DHT22;2196;47.422;9.656;2022-11-20T11:12:17;8.80;99.90
4366;DHT22;2196;47.422;9.656;2022-11-20T11:14:47;9.00;99.90
4366;DHT22;2196;47.422;9.656;2022-11-20T11:17:22;9.00;99.90
4366;DHT22;2196;47.422;9.656;2022-11-20T11:20:06;9.20;99.90
4366;DHT22;2196;47.422;9.656;2022-11-20T11:22:43;9.40;99.90
4366;DHT22;2196;47.422;9.656;2022-11-20T11:25:23;9.50;99.90
4366;DHT22;2196;47.422;9.656;2022-11-20T11:27:51;9.70;99.90
4366;DHT22;2196;47.422;9.656;2022-11-20T11:30:21;9.80;99.90
4366;DHT22;2196;47.422;9.656;2022-11-20T11:32:49;10.00;99.90
4366;DHT22;2196;47.422;9.656;2022-11-20T11:35:23;10.10;99.90
4366;DHT22;2196;47.422;9.656;2022-11-20T11:37:51;10.20;99.90
4366;DHT22;2196;47.422;9.656;2022-11-20T11:40:21;10.10;99.90
4366;DHT22;2196;47.422;9.656;2022-11-20T11:42:54;10.00;99.90
4366;DHT22;2196;47.422;9.656;2022-11-20T11:45:21;9.90;99.90
4366;DHT22;2196;47.422;9.656;2022-11-20T11:47:48;9.80;99.90
4366;DHT22;2196;47.422;9.656;2022-11-20T11:50:21;9.80;99.90
4366;DHT22;2196;47.422;9.656;2022-11-20T11:52:56;9.80;99.90
4366;DHT22;2196;47.422;9.656;2022-11-20T11:55:32;9.80;99.90
4366;DHT22;2196;47.422;9.656;2022-11-20T11:58:11;9.80;99.90
4366;DHT22;2196;47.422;9.656;2022-11-20T12:00:49;9.80;99.90
4366;DHT22;2196;47.422;9.656;2022-11-20T12:03:21;9.90;99.90
4366;DHT22;2196;47.422;9.656;2022-11-20T12:05:57;10.00;99.90
4366;DHT22;2196;47.422;9.656;2022-11-20T12:08:30;10.00;99.90
4366;DHT22;2196;47.422;9.656;2022-11-20T12:11:04;10.00;99.90
4366;DHT22;2196;47.422;9.656;2022-11-20T12:13:41;10.00;99.90
4366;DHT22;2196;47.422;9.656;2022-11-20T12:16:12;10.00;99.90
4366;DHT22;2196;47.422;9.656;2022-11-20T12:18:40;10.00;99.90
4366;DHT22;2196;47.422;9.656;2022-11-20T12:21:19;9.90;99.90
4366;DHT22;2196;47.422;9.656;2022-11-20T12:24:01;10.00;99.90
4366;DHT22;2196;47.422;9.656;2022-11-20T12:26:40;10.10;99.90
4366;DHT22;2196;47.422;9.656;2022-11-20T12:29:16;10.20;99.90
4366;DHT22;2196;47.422;9.656;2022-11-20T12:31:57;10.30;99.90
4366;DHT22;2196;47.422;9.656;2022-11-20T12:34:43;10.20;99.90
4366;DHT22;2196;47.422;9.656;2022-11-20T12:37:29;10.30;99.90
4366;DHT22;2196;47.422;9.656;2022-11-20T12:40:06;10.30;99.90
4366;DHT22;2196;47.422;9.656;2022-11-20T12:42:48;10.20;99.90
4366;DHT22;2196;47.422;9.656;2022-11-20T12:46:08;10.30;99.90
4366;DHT22;2196;47.422;9.656;2022-11-20T12:49:16;10.40;99.90
4366;DHT22;2196;47.422;9.656;2022-11-20T12:51:58;10.50;99.90
4366;DHT22;2196;47.422;9.656;2022-11-20T12:54:50;10.50;99.90
4366;DHT22;2196;47.422;9.656;2022-11-20T12:57:23;10.60;99.90
4366;DHT22;2196;47.422;9.656;2022-11-20T13:00:03;10.70;99.90
4366;DHT22;2196;47.422;9.656;2022-11-20T13:02:41;10.70;99.90
4366;DHT22;2196;47.422;9.656;2022-11-20T13:05:21;10.70;99.90
4366;DHT22;2196;47.422;9.656;2022-11-20T13:07:53;10.70;99.90
4366;DHT22;2196;47.422;9.656;2022-11-20T13:10:30;10.80;99.90
4366;DHT22;2196;47.422;9.656;2022-11-20T13:13:03;10.80;99.90
4366;DHT22;2196;47.422;9.656;2022-11-20T13:15:48;10.70;99.90
4366;DHT22;2196;47.422;9.656;2022-11-20T13:18:18;10.70;99.90
4366;DHT22;2196;47.422;9.656;2022-11-20T13:20:46;10.70;99.90
4366;DHT22;2196;47.422;9.656;2022-11-20T13:23:23;10.70;99.90
4366;DHT22;2196;47.422;9.656;2022-11-20T13:26:03;10.50;99.90
4366;DHT22;2196;47.422;9.656;2022-11-20T13:28:30;10.50;99.90
4366;DHT22;2196;47.422;9.656;2022-11-20T13:30:58;10.50;99.90
4366;DHT22;2196;47.422;9.656;2022-11-20T13:33:30;10.50;99.90
4366;DHT22;2196;47.422;9.656;2022-11-20T13:35:59;10.50;99.90
4366;DHT22;2196;47.422;9.656;2022-11-20T13:38:28;10.70;99.90
4366;DHT22;2196;47.422;9.656;2022-11-20T13:40:58;10.80;99.90
4366;DHT22;2196;47.422;9.656;2022-11-20T13:43:47;10.80;99.90
4366;DHT22;2196;47.422;9.656;2022-11-20T13:46:14;10.90;99.90
4366;DHT22;2196;47.422;9.656;2022-11-20T13:48:43;10.80;99.90
4366;DHT22;2196;47.422;9.656;2022-11-20T13:51:20;10.80;99.90
4366;DHT22;2196;47.422;9.656;2022-11-20T13:54:14;10.80;99.90
4366;DHT22;2196;47.422;9.656;2022-11-20T13:56:59;10.60;99.90
4366;DHT22;2196;47.422;9.656;2022-11-20T13:59:40;10.30;99.90
4366;DHT22;2196;47.422;9.656;2022-11-20T14:02:12;10.40;99.90
4366;DHT22;2196;47.422;9.656;2022-11-20T14:04:43;10.30;99.90
4366;DHT22;2196;47.422;9.656;2022-11-20T14:07:12;10.30;99.90
4366;DHT22;2196;47.422;9.656;2022-11-20T14:09:50;10.20;99.90
4366;DHT22;2196;47.422;9.656;2022-11-20T14:12:21;10.20;99.90
4366;DHT22;2196;47.422;9.656;2022-11-20T14:14:49;10.10;99.90
4366;DHT22;2196;47.422;9.656;2022-11-20T14:17:19;10.00;99.90
4366;DHT22;2196;47.422;9.656;2022-11-20T14:19:48;10.00;99.90
4366;DHT22;2196;47.422;9.656;2022-11-20T14:22:19;9.90;99.90
4366;DHT22;2196;47.422;9.656;2022-11-20T14:24:46;9.80;99.90
4366;DHT22;2196;47.422;9.656;2022-11-20T14:27:16;9.90;99.90
4366;DHT22;2196;47.422;9.656;2022-11-20T14:29:46;9.80;99.90
4366;DHT22;2196;47.422;9.656;2022-11-20T14:32:16;9.90;99.90
4366;DHT22;2196;47.422;9.656;2022-11-20T14:34:45;9.80;99.90
4366;DHT22;2196;47.422;9.656;2022-11-20T14:37:18;9.80;99.90
4366;DHT22;2196;47.422;9.656;2022-11-20T14:39:49;9.90;99.90
4366;DHT22;2196;47.422;9.656;2022-11-20T14:42:19;9.80;99.90
4366;DHT22;2196;47.422;9.656;2022-11-20T14:44:48;9.70;99.90
4366;DHT22;2196;47.422;9.656;2022-11-20T14:47:19;9.70;99.90
4366;DHT22;2196;47.422;9.656;2022-11-20T14:49:48;9.70;99.90
4366;DHT22;2196;47.422;9.656;2022-11-20T14:52:16;9.60;99.90
4366;DHT22;2196;47.422;9.656;2022-11-20T14:54:45;9.60;99.90
4366;DHT22;2196;47.422;9.656;2022-11-20T14:57:24;9.60;99.90
4366;DHT22;2196;47.422;9.656;2022-11-20T15:00:04;9.70;99.90
4366;DHT22;2196;47.422;9.656;2022-11-20T15:02:32;9.70;99.90
4366;DHT22;2196;47.422;9.656;2022-11-20T15:05:01;9.60;99.90
4366;DHT22;2196;47.422;9.656;2022-11-20T15:07:31;9.50;99.90
4366;DHT22;2196;47.422;9.656;2022-11-20T15:10:00;9.40;99.90
4366;DHT22;2196;47.422;9.656;2022-11-20T15:12:28;9.20;99.90
4366;DHT22;2196;47.422;9.656;2022-11-20T15:14:58;9.20;99.90
4366;DHT22;2196;47.422;9.656;2022-11-20T15:17:25;9.10;99.90
4366;DHT22;2196;47.422;9.656;2022-11-20T15:19:53;9.00;99.90
4366;DHT22;2196;47.422;9.656;2022-11-20T15:22:21;8.90;99.90
4366;DHT22;2196;47.422;9.656;2022-11-20T15:24:48;8.80;99.90
4366;DHT22;2196;47.422;9.656;2022-11-20T15:27:15;8.70;99.90
4366;DHT22;2196;47.422;9.656;2022-11-20T15:29:42;8.60;99.90
4366;DHT22;2196;47.422;9.656;2022-11-20T15:32:11;8.50;99.90
4366;DHT22;2196;47.422;9.656;2022-11-20T15:34:38;8.40;99.90
4366;DHT22;2196;47.422;9.656;2022-11-20T15:37:05;8.30;99.90
4366;DHT22;2196;47.422;9.656;2022-11-20T15:39:32;8.20;99.90
4366;DHT22;2196;47.422;9.656;2022-11-20T15:41:59;8.20;99.90
4366;DHT22;2196;47.422;9.656;2022-11-20T15:44:27;8.10;99.90
4366;DHT22;2196;47.422;9.656;2022-11-20T15:46:54;8.10;99.90
4366;DHT22;2196;47.422;9.656;2022-11-20T15:49:26;8.10;99.90
4366;DHT22;2196;47.422;9.656;2022-11-20T15:51:53;8.00;99.90
4366;DHT22;2196;47.422;9.656;2022-11-20T15:54:22;8.00;99.90
4366;DHT22;2196;47.422;9.656;2022-11-20T15:56:52;8.00;99.90
4366;DHT22;2196;47.422;9.656;2022-11-20T15:59:19;7.90;99.90
4366;DHT22;2196;47.422;9.656;2022-11-20T16:01:46;7.90;99.90
4366;DHT22;2196;47.422;9.656;2022-11-20T16:04:15;7.80;99.90
4366;DHT22;2196;47.422;9.656;2022-11-20T16:06:44;7.60;99.90
4366;DHT22;2196;47.422;9.656;2022-11-20T16:09:11;7.50;99.90
4366;DHT22;2196;47.422;9.656;2022-11-20T16:11:38;7.30;99.90
4366;DHT22;2196;47.422;9.656;2022-11-20T16:14:05;7.20;99.90
4366;DHT22;2196;47.422;9.656;2022-11-20T16:16:50;7.10;99.90
4366;DHT22;2196;47.422;9.656;2022-11-20T16:19:17;7.00;99.90
4366;DHT22;2196;47.422;9.656;2022-11-20T16:21:46;7.00;99.90
4366;DHT22;2196;47.422;9.656;2022-11-20T16:24:14;6.90;99.90
4366;DHT22;2196;47.422;9.656;2022-11-20T16:26:42;6.90;99.90
4366;DHT22;2196;47.422;9.656;2022-11-20T16:29:09;6.90;99.90
4366;DHT22;2196;47.422;9.656;2022-11-20T16:31:36;6.90;99.90
4366;DHT22;2196;47.422;9.656;2022-11-20T16:34:05;6.70;99.90
4366;DHT22;2196;47.422;9.656;2022-11-20T16:36:33;6.60;99.90